Airfield :
LOGIN :

Register | Disclaimer

   EN    FR    IT 

 










Legend :    VFR   Marginal VFR   IFR   Intensive IFR   Very Intensive IFR
Visi :
Ceiling :
>= 8 km
>= 3000ft
5 to 8 km
1000 to 3000 ft
1500m to 5 km
500 to 1000 ft
800 to 1500m
200 to 500 ft
< 800m
< 200 ft
Symbols :   Thunderstorms  Fog  Heavy snow  Heavy precipitations  Wind > 20 kt
SIGMETs :     Misc.  Thunderstorms  Icing  Turbulence  Mountain Waves  Volcanic Ashes







- Airport Elevation : 468 ft
- IATA code : GRO


LEGE - Girona Costa Brava

CURRENT METAR :
  • 150500Z 00000KT 5000 BR FEW027 03/03 Q1020

EXPIRED METARs :
  • 150430Z 00000KT 5000 BR FEW027 03/03 Q1020
  • 150400Z 00000KT 5000 BR FEW027 03/03 Q1020
  • 150330Z VRB02KT 5000 BR FEW027 02/02 Q1020
  • 150300Z 00000KT 5000 BR FEW090 02/02 Q1020
  • 150230Z 32004KT 290V350 5000 BR FEW090 06/06 Q1020

TAF TAF LEGE
Valid from the 15 at 06:00 until the 16 at 06:00 UTC


150500Z 1506/1606 VRB03KT 8000 FEW020 TX15/1513Z TN02/1506Z
TEMPO 1506/1509 4000 BR BKN014
PROB30
TEMPO 1506/1508 1000 BCFG VV002
TEMPO 1521/1606 4000 BR BKN010
No reported NOTAMs for that airfield.



MET'MAP, your aeronautical weather chart ! - Copyright ORBIFLY December 2007 - Disclaimer

ORBIFLY MET'MAP TEAM :

Programming & Development : Alexandra Zaïnal
Concept & Development : Baudouin d'Aumeries
Co-Development & Prog : Marc-Olivier Méhu
Technical & hardware support : Manuel Goepfert

Contact : metmap@orbifly.com




SOURCES & CREDITS :

   NOAA